sensor_id;sensor_type;location;lat;lon;timestamp;temperature;humidity
3566;DHT22;1797;51.844;7.684;2023-02-22T00:00:19;8.50;99.90
3566;DHT22;1797;51.844;7.684;2023-02-22T00:02:51;8.50;99.90
3566;DHT22;1797;51.844;7.684;2023-02-22T00:05:17;8.40;99.90
3566;DHT22;1797;51.844;7.684;2023-02-22T00:07:49;8.40;99.90
3566;DHT22;1797;51.844;7.684;2023-02-22T00:10:15;8.40;99.90
3566;DHT22;1797;51.844;7.684;2023-02-22T00:12:46;8.40;99.90
3566;DHT22;1797;51.844;7.684;2023-02-22T00:15:14;8.40;99.90
3566;DHT22;1797;51.844;7.684;2023-02-22T00:17:40;8.40;99.90
3566;DHT22;1797;51.844;7.684;2023-02-22T00:20:07;8.40;99.90
3566;DHT22;1797;51.844;7.684;2023-02-22T00:22:33;8.30;99.90
3566;DHT22;1797;51.844;7.684;2023-02-22T00:24:58;8.30;99.90
3566;DHT22;1797;51.844;7.684;2023-02-22T00:27:24;8.30;99.90
3566;DHT22;1797;51.844;7.684;2023-02-22T00:29:50;8.20;99.90
3566;DHT22;1797;51.844;7.684;2023-02-22T00:32:15;8.10;99.90
3566;DHT22;1797;51.844;7.684;2023-02-22T00:34:41;8.10;99.90
3566;DHT22;1797;51.844;7.684;2023-02-22T00:37:09;8.10;99.90
3566;DHT22;1797;51.844;7.684;2023-02-22T00:39:35;8.10;99.90
3566;DHT22;1797;51.844;7.684;2023-02-22T00:42:01;8.00;99.90
3566;DHT22;1797;51.844;7.684;2023-02-22T00:44:27;8.00;99.90
3566;DHT22;1797;51.844;7.684;2023-02-22T00:46:52;8.00;99.90
3566;DHT22;1797;51.844;7.684;2023-02-22T00:49:18;8.10;99.90
3566;DHT22;1797;51.844;7.684;2023-02-22T00:51:44;8.10;99.90
3566;DHT22;1797;51.844;7.684;2023-02-22T00:54:09;8.00;99.90
3566;DHT22;1797;51.844;7.684;2023-02-22T00:56:35;8.00;99.90
3566;DHT22;1797;51.844;7.684;2023-02-22T00:59:02;8.00;99.90
3566;DHT22;1797;51.844;7.684;2023-02-22T01:01:29;8.00;99.90
3566;DHT22;1797;51.844;7.684;2023-02-22T01:03:54;7.90;99.90
3566;DHT22;1797;51.844;7.684;2023-02-22T01:06:20;7.90;99.90
3566;DHT22;1797;51.844;7.684;2023-02-22T01:08:47;7.90;99.90
3566;DHT22;1797;51.844;7.684;2023-02-22T01:11:14;7.90;99.90
3566;DHT22;1797;51.844;7.684;2023-02-22T01:13:40;7.90;99.90
3566;DHT22;1797;51.844;7.684;2023-02-22T01:16:06;8.00;99.90
3566;DHT22;1797;51.844;7.684;2023-02-22T01:18:35;8.00;99.90
3566;DHT22;1797;51.844;7.684;2023-02-22T01:21:03;8.00;99.90
3566;DHT22;1797;51.844;7.684;2023-02-22T01:23:29;8.00;99.90
3566;DHT22;1797;51.844;7.684;2023-02-22T01:25:55;8.00;99.90
3566;DHT22;1797;51.844;7.684;2023-02-22T01:28:21;8.00;99.90
3566;DHT22;1797;51.844;7.684;2023-02-22T01:30:47;8.00;99.90
3566;DHT22;1797;51.844;7.684;2023-02-22T01:33:13;8.00;99.90
3566;DHT22;1797;51.844;7.684;2023-02-22T01:35:40;8.00;99.90
3566;DHT22;1797;51.844;7.684;2023-02-22T01:38:06;8.00;99.90
3566;DHT22;1797;51.844;7.684;2023-02-22T01:40:41;8.00;99.90
3566;DHT22;1797;51.844;7.684;2023-02-22T01:43:26;8.00;99.90
3566;DHT22;1797;51.844;7.684;2023-02-22T01:46:24;8.00;99.90
3566;DHT22;1797;51.844;7.684;2023-02-22T01:48:57;8.00;99.90
3566;DHT22;1797;51.844;7.684;2023-02-22T01:51:36;8.00;99.90
3566;DHT22;1797;51.844;7.684;2023-02-22T01:54:07;8.00;99.90
3566;DHT22;1797;51.844;7.684;2023-02-22T01:56:37;8.00;99.90
3566;DHT22;1797;51.844;7.684;2023-02-22T01:59:10;8.00;99.90
3566;DHT22;1797;51.844;7.684;2023-02-22T02:01:38;8.00;99.90
3566;DHT22;1797;51.844;7.684;2023-02-22T02:04:15;7.90;99.90
3566;DHT22;1797;51.844;7.684;2023-02-22T02:06:42;7.90;99.90
3566;DHT22;1797;51.844;7.684;2023-02-22T02:12:15;8.00;99.90
3566;DHT22;1797;51.844;7.684;2023-02-22T02:14:42;8.00;99.90
3566;DHT22;1797;51.844;7.684;2023-02-22T02:17:10;8.00;99.90
3566;DHT22;1797;51.844;7.684;2023-02-22T02:22:34;8.00;99.90
3566;DHT22;1797;51.844;7.684;2023-02-22T02:30:57;7.70;99.90
3566;DHT22;1797;51.844;7.684;2023-02-22T02:33:43;7.70;99.90
3566;DHT22;1797;51.844;7.684;2023-02-22T02:36:17;7.60;99.90
3566;DHT22;1797;51.844;7.684;2023-02-22T02:39:01;7.50;99.90
3566;DHT22;1797;51.844;7.684;2023-02-22T02:41:39;7.50;99.90
3566;DHT22;1797;51.844;7.684;2023-02-22T02:44:20;7.50;99.90
3566;DHT22;1797;51.844;7.684;2023-02-22T02:47:05;7.50;99.90
3566;DHT22;1797;51.844;7.684;2023-02-22T02:49:40;7.50;99.90
3566;DHT22;1797;51.844;7.684;2023-02-22T02:52:09;7.40;99.90
3566;DHT22;1797;51.844;7.684;2023-02-22T02:54:37;7.40;99.90
3566;DHT22;1797;51.844;7.684;2023-02-22T02:57:04;7.40;99.90
3566;DHT22;1797;51.844;7.684;2023-02-22T02:59:34;7.40;99.90
3566;DHT22;1797;51.844;7.684;2023-02-22T03:13:42;7.40;99.90
3566;DHT22;1797;51.844;7.684;2023-02-22T03:19:08;7.30;99.90
3566;DHT22;1797;51.844;7.684;2023-02-22T03:21:55;7.40;99.90
3566;DHT22;1797;51.844;7.684;2023-02-22T03:24:35;7.40;99.90
3566;DHT22;1797;51.844;7.684;2023-02-22T03:27:10;7.40;99.90
3566;DHT22;1797;51.844;7.684;2023-02-22T03:29:41;7.40;99.90
3566;DHT22;1797;51.844;7.684;2023-02-22T03:32:14;7.50;99.90
3566;DHT22;1797;51.844;7.684;2023-02-22T03:34:44;7.40;99.90
3566;DHT22;1797;51.844;7.684;2023-02-22T03:37:28;7.40;99.90
3566;DHT22;1797;51.844;7.684;2023-02-22T03:39:59;7.30;99.90
3566;DHT22;1797;51.844;7.684;2023-02-22T03:42:30;7.30;99.90
3566;DHT22;1797;51.844;7.684;2023-02-22T03:44:59;7.20;99.90
3566;DHT22;1797;51.844;7.684;2023-02-22T03:47:50;7.20;99.90
3566;DHT22;1797;51.844;7.684;2023-02-22T03:50:24;7.10;99.90
3566;DHT22;1797;51.844;7.684;2023-02-22T03:52:52;7.00;99.90
3566;DHT22;1797;51.844;7.684;2023-02-22T03:55:18;7.00;99.90
3566;DHT22;1797;51.844;7.684;2023-02-22T03:57:49;7.00;99.90
3566;DHT22;1797;51.844;7.684;2023-02-22T04:00:21;7.00;99.90
3566;DHT22;1797;51.844;7.684;2023-02-22T04:02:47;7.00;99.90
3566;DHT22;1797;51.844;7.684;2023-02-22T04:05:13;6.90;99.90
3566;DHT22;1797;51.844;7.684;2023-02-22T04:07:39;6.90;99.90
3566;DHT22;1797;51.844;7.684;2023-02-22T04:10:05;6.90;99.90
3566;DHT22;1797;51.844;7.684;2023-02-22T04:12:34;7.00;99.90
3566;DHT22;1797;51.844;7.684;2023-02-22T04:15:00;7.00;99.90
3566;DHT22;1797;51.844;7.684;2023-02-22T04:17:25;7.00;99.90
3566;DHT22;1797;51.844;7.684;2023-02-22T04:19:51;7.00;99.90
3566;DHT22;1797;51.844;7.684;2023-02-22T04:22:16;7.00;99.90
3566;DHT22;1797;51.844;7.684;2023-02-22T04:24:42;7.00;99.90
3566;DHT22;1797;51.844;7.684;2023-02-22T04:27:07;7.00;99.90
3566;DHT22;1797;51.844;7.684;2023-02-22T04:29:33;7.00;99.90
3566;DHT22;1797;51.844;7.684;2023-02-22T04:31:59;7.00;99.90
3566;DHT22;1797;51.844;7.684;2023-02-22T04:34:24;6.90;99.90
3566;DHT22;1797;51.844;7.684;2023-02-22T04:36:50;6.80;99.90
3566;DHT22;1797;51.844;7.684;2023-02-22T04:39:15;6.70;99.90
3566;DHT22;1797;51.844;7.684;2023-02-22T04:41:41;6.60;99.90
3566;DHT22;1797;51.844;7.684;2023-02-22T04:44:06;6.60;99.90
3566;DHT22;1797;51.844;7.684;2023-02-22T04:46:32;6.60;99.90
3566;DHT22;1797;51.844;7.684;2023-02-22T04:48:58;6.60;99.90
3566;DHT22;1797;51.844;7.684;2023-02-22T04:51:24;6.60;99.90
3566;DHT22;1797;51.844;7.684;2023-02-22T04:53:50;6.60;99.90
3566;DHT22;1797;51.844;7.684;2023-02-22T04:56:19;6.60;99.90
3566;DHT22;1797;51.844;7.684;2023-02-22T04:58:44;6.50;99.90
3566;DHT22;1797;51.844;7.684;2023-02-22T05:01:10;6.60;99.90
3566;DHT22;1797;51.844;7.684;2023-02-22T05:03:38;6.60;99.90
3566;DHT22;1797;51.844;7.684;2023-02-22T05:06:04;6.60;99.90
3566;DHT22;1797;51.844;7.684;2023-02-22T05:08:30;6.50;99.90
3566;DHT22;1797;51.844;7.684;2023-02-22T05:10:56;6.50;99.90
3566;DHT22;1797;51.844;7.684;2023-02-22T05:13:21;6.50;99.90
3566;DHT22;1797;51.844;7.684;2023-02-22T05:15:47;6.50;99.90
3566;DHT22;1797;51.844;7.684;2023-02-22T05:18:13;6.50;99.90
3566;DHT22;1797;51.844;7.684;2023-02-22T05:20:39;6.40;99.90
3566;DHT22;1797;51.844;7.684;2023-02-22T05:23:05;6.40;99.90
3566;DHT22;1797;51.844;7.684;2023-02-22T05:25:31;6.40;99.90
3566;DHT22;1797;51.844;7.684;2023-02-22T05:28:00;6.40;99.90
3566;DHT22;1797;51.844;7.684;2023-02-22T05:30:30;6.50;99.90
3566;DHT22;1797;51.844;7.684;2023-02-22T05:32:56;6.40;99.90
3566;DHT22;1797;51.844;7.684;2023-02-22T05:35:22;6.40;99.90
3566;DHT22;1797;51.844;7.684;2023-02-22T05:37:48;6.40;99.90
3566;DHT22;1797;51.844;7.684;2023-02-22T05:40:20;6.40;99.90
3566;DHT22;1797;51.844;7.684;2023-02-22T05:42:47;6.50;99.90
3566;DHT22;1797;51.844;7.684;2023-02-22T05:45:13;6.50;99.90
3566;DHT22;1797;51.844;7.684;2023-02-22T05:47:39;6.50;99.90
3566;DHT22;1797;51.844;7.684;2023-02-22T05:50:05;6.50;99.90
3566;DHT22;1797;51.844;7.684;2023-02-22T05:52:31;6.40;99.90
3566;DHT22;1797;51.844;7.684;2023-02-22T05:54:56;6.50;99.90
3566;DHT22;1797;51.844;7.684;2023-02-22T05:57:22;6.50;99.90
3566;DHT22;1797;51.844;7.684;2023-02-22T05:59:48;6.40;99.90
3566;DHT22;1797;51.844;7.684;2023-02-22T06:02:14;6.40;99.90
3566;DHT22;1797;51.844;7.684;2023-02-22T06:04:42;6.40;99.90
3566;DHT22;1797;51.844;7.684;2023-02-22T06:07:08;6.40;99.90
3566;DHT22;1797;51.844;7.684;2023-02-22T06:09:33;6.30;99.90
3566;DHT22;1797;51.844;7.684;2023-02-22T06:11:59;6.30;99.90
3566;DHT22;1797;51.844;7.684;2023-02-22T06:14:24;6.20;99.90
3566;DHT22;1797;51.844;7.684;2023-02-22T06:16:54;6.30;99.90
3566;DHT22;1797;51.844;7.684;2023-02-22T06:19:20;6.20;99.90
3566;DHT22;1797;51.844;7.684;2023-02-22T06:21:51;6.20;99.90
3566;DHT22;1797;51.844;7.684;2023-02-22T06:24:17;6.20;99.90
3566;DHT22;1797;51.844;7.684;2023-02-22T06:26:43;6.20;99.90
3566;DHT22;1797;51.844;7.684;2023-02-22T06:29:08;6.20;99.90
3566;DHT22;1797;51.844;7.684;2023-02-22T06:31:34;6.10;99.90
3566;DHT22;1797;51.844;7.684;2023-02-22T06:34:01;6.00;99.90
3566;DHT22;1797;51.844;7.684;2023-02-22T06:36:27;5.90;99.90
3566;DHT22;1797;51.844;7.684;2023-02-22T06:38:52;5.90;99.90
3566;DHT22;1797;51.844;7.684;2023-02-22T06:41:18;5.90;99.90
3566;DHT22;1797;51.844;7.684;2023-02-22T06:43:46;5.90;99.90
3566;DHT22;1797;51.844;7.684;2023-02-22T06:46:12;5.80;99.90
3566;DHT22;1797;51.844;7.684;2023-02-22T06:48:38;5.90;99.90
3566;DHT22;1797;51.844;7.684;2023-02-22T06:51:06;5.90;99.90
3566;DHT22;1797;51.844;7.684;2023-02-22T06:53:33;5.90;99.90
3566;DHT22;1797;51.844;7.684;2023-02-22T06:55:59;5.80;99.90
3566;DHT22;1797;51.844;7.684;2023-02-22T06:58:25;6.00;99.90
3566;DHT22;1797;51.844;7.684;2023-02-22T07:00:51;5.90;99.90
3566;DHT22;1797;51.844;7.684;2023-02-22T07:03:17;5.90;99.90
3566;DHT22;1797;51.844;7.684;2023-02-22T07:05:43;5.90;99.90
3566;DHT22;1797;51.844;7.684;2023-02-22T07:08:10;5.90;99.90
3566;DHT22;1797;51.844;7.684;2023-02-22T07:10:37;5.90;99.90
3566;DHT22;1797;51.844;7.684;2023-02-22T07:13:04;5.80;99.90
3566;DHT22;1797;51.844;7.684;2023-02-22T07:15:31;5.90;99.90
3566;DHT22;1797;51.844;7.684;2023-02-22T07:17:58;5.70;99.90
3566;DHT22;1797;51.844;7.684;2023-02-22T07:20:26;5.60;99.90
3566;DHT22;1797;51.844;7.684;2023-02-22T07:22:52;5.60;99.90
3566;DHT22;1797;51.844;7.684;2023-02-22T07:25:17;5.60;99.90
3566;DHT22;1797;51.844;7.684;2023-02-22T07:27:43;5.70;99.90
3566;DHT22;1797;51.844;7.684;2023-02-22T07:32:44;5.60;99.90
3566;DHT22;1797;51.844;7.684;2023-02-22T07:35:24;5.60;99.90
3566;DHT22;1797;51.844;7.684;2023-02-22T07:37:50;5.60;99.90
3566;DHT22;1797;51.844;7.684;2023-02-22T07:40:17;5.70;99.90
3566;DHT22;1797;51.844;7.684;2023-02-22T07:43:00;5.80;99.90
3566;DHT22;1797;51.844;7.684;2023-02-22T07:45:30;5.90;99.90
3566;DHT22;1797;51.844;7.684;2023-02-22T07:47:57;5.90;99.90
3566;DHT22;1797;51.844;7.684;2023-02-22T07:50:24;5.90;99.90
3566;DHT22;1797;51.844;7.684;2023-02-22T07:52:52;5.80;99.90
3566;DHT22;1797;51.844;7.684;2023-02-22T07:55:21;5.80;99.90
3566;DHT22;1797;51.844;7.684;2023-02-22T07:57:48;5.70;99.90
3566;DHT22;1797;51.844;7.684;2023-02-22T08:00:19;5.80;99.90
3566;DHT22;1797;51.844;7.684;2023-02-22T08:02:45;5.80;99.90
3566;DHT22;1797;51.844;7.684;2023-02-22T08:05:12;5.90;99.90
3566;DHT22;1797;51.844;7.684;2023-02-22T08:07:38;6.00;99.90
3566;DHT22;1797;51.844;7.684;2023-02-22T08:10:06;5.90;99.90
3566;DHT22;1797;51.844;7.684;2023-02-22T08:12:33;6.00;99.90
3566;DHT22;1797;51.844;7.684;2023-02-22T08:14:59;6.00;99.90
3566;DHT22;1797;51.844;7.684;2023-02-22T08:17:25;6.00;99.90
3566;DHT22;1797;51.844;7.684;2023-02-22T08:19:50;6.10;99.90
3566;DHT22;1797;51.844;7.684;2023-02-22T08:22:16;6.00;99.90
3566;DHT22;1797;51.844;7.684;2023-02-22T08:24:41;6.00;99.90
3566;DHT22;1797;51.844;7.684;2023-02-22T08:27:07;6.00;99.90
3566;DHT22;1797;51.844;7.684;2023-02-22T08:29:33;6.00;99.90
3566;DHT22;1797;51.844;7.684;2023-02-22T08:31:59;6.10;99.90
3566;DHT22;1797;51.844;7.684;2023-02-22T08:34:25;6.20;99.90
3566;DHT22;1797;51.844;7.684;2023-02-22T08:36:51;6.30;99.90
3566;DHT22;1797;51.844;7.684;2023-02-22T08:39:16;6.40;99.90
3566;DHT22;1797;51.844;7.684;2023-02-22T08:41:42;6.50;99.90
3566;DHT22;1797;51.844;7.684;2023-02-22T08:44:07;6.50;99.90
3566;DHT22;1797;51.844;7.684;2023-02-22T08:46:33;6.70;99.90
3566;DHT22;1797;51.844;7.684;2023-02-22T08:48:59;6.70;99.90
3566;DHT22;1797;51.844;7.684;2023-02-22T08:51:25;6.80;99.90
3566;DHT22;1797;51.844;7.684;2023-02-22T08:53:51;6.90;99.90
3566;DHT22;1797;51.844;7.684;2023-02-22T08:56:17;6.90;99.90
3566;DHT22;1797;51.844;7.684;2023-02-22T08:58:43;7.00;99.90
3566;DHT22;1797;51.844;7.684;2023-02-22T09:01:09;7.10;99.90
3566;DHT22;1797;51.844;7.684;2023-02-22T09:03:34;7.10;99.90
3566;DHT22;1797;51.844;7.684;2023-02-22T09:06:00;7.20;99.90
3566;DHT22;1797;51.844;7.684;2023-02-22T09:08:25;7.30;99.90
3566;DHT22;1797;51.844;7.684;2023-02-22T09:10:51;7.30;99.90
3566;DHT22;1797;51.844;7.684;2023-02-22T09:13:17;7.30;99.90
3566;DHT22;1797;51.844;7.684;2023-02-22T09:15:42;7.40;99.90
3566;DHT22;1797;51.844;7.684;2023-02-22T09:18:10;7.50;99.90
3566;DHT22;1797;51.844;7.684;2023-02-22T09:20:38;7.60;99.90
3566;DHT22;1797;51.844;7.684;2023-02-22T09:23:05;7.70;99.90
3566;DHT22;1797;51.844;7.684;2023-02-22T09:25:31;7.70;99.90
3566;DHT22;1797;51.844;7.684;2023-02-22T09:27:58;7.70;99.90
3566;DHT22;1797;51.844;7.684;2023-02-22T09:30:32;7.70;99.90
3566;DHT22;1797;51.844;7.684;2023-02-22T09:33:01;7.80;99.90
3566;DHT22;1797;51.844;7.684;2023-02-22T09:35:27;7.80;99.90
3566;DHT22;1797;51.844;7.684;2023-02-22T09:37:58;7.80;99.90
3566;DHT22;1797;51.844;7.684;2023-02-22T09:40:27;7.90;99.90
3566;DHT22;1797;51.844;7.684;2023-02-22T09:51:31;8.50;99.90
3566;DHT22;1797;51.844;7.684;2023-02-22T09:54:02;8.70;99.90
3566;DHT22;1797;51.844;7.684;2023-02-22T09:56:29;8.90;99.90
3566;DHT22;1797;51.844;7.684;2023-02-22T09:58:59;8.90;99.90
3566;DHT22;1797;51.844;7.684;2023-02-22T10:01:38;9.00;99.90
3566;DHT22;1797;51.844;7.684;2023-02-22T10:04:39;9.30;99.90
3566;DHT22;1797;51.844;7.684;2023-02-22T10:07:20;9.40;99.90
3566;DHT22;1797;51.844;7.684;2023-02-22T10:09:51;9.60;99.90
3566;DHT22;1797;51.844;7.684;2023-02-22T10:12:43;9.70;99.90
3566;DHT22;1797;51.844;7.684;2023-02-22T10:23:37;10.40;99.90
3566;DHT22;1797;51.844;7.684;2023-02-22T10:31:31;10.80;99.90
3566;DHT22;1797;51.844;7.684;2023-02-22T10:34:03;10.90;99.90
3566;DHT22;1797;51.844;7.684;2023-02-22T10:36:30;11.10;99.90
3566;DHT22;1797;51.844;7.684;2023-02-22T10:39:24;11.30;99.90
3566;DHT22;1797;51.844;7.684;2023-02-22T10:41:53;11.40;99.90
3566;DHT22;1797;51.844;7.684;2023-02-22T10:44:20;11.60;99.90
3566;DHT22;1797;51.844;7.684;2023-02-22T10:46:46;11.80;99.90
3566;DHT22;1797;51.844;7.684;2023-02-22T10:49:18;11.90;99.90
3566;DHT22;1797;51.844;7.684;2023-02-22T10:51:48;12.00;99.90
3566;DHT22;1797;51.844;7.684;2023-02-22T10:54:25;12.20;99.90
3566;DHT22;1797;51.844;7.684;2023-02-22T10:56:54;12.30;99.90
3566;DHT22;1797;51.844;7.684;2023-02-22T10:59:30;12.50;99.90
3566;DHT22;1797;51.844;7.684;2023-02-22T11:01:57;12.60;99.90
3566;DHT22;1797;51.844;7.684;2023-02-22T11:04:23;12.80;99.90
3566;DHT22;1797;51.844;7.684;2023-02-22T11:07:17;12.80;1.00
3566;DHT22;1797;51.844;7.684;2023-02-22T11:09:55;13.00;99.90
3566;DHT22;1797;51.844;7.684;2023-02-22T11:12:31;13.10;1.00
3566;DHT22;1797;51.844;7.684;2023-02-22T11:17:45;13.30;3.50
3566;DHT22;1797;51.844;7.684;2023-02-22T11:20:23;13.50;1.00
3566;DHT22;1797;51.844;7.684;2023-02-22T11:22:58;13.50;1.00
3566;DHT22;1797;51.844;7.684;2023-02-22T11:25:33;13.40;1.00
3566;DHT22;1797;51.844;7.684;2023-02-22T11:28:09;13.50;1.00
3566;DHT22;1797;51.844;7.684;2023-02-22T11:30:37;13.50;1.00
3566;DHT22;1797;51.844;7.684;2023-02-22T11:38:25;13.40;99.90
3566;DHT22;1797;51.844;7.684;2023-02-22T11:43:35;13.50;1.00
3566;DHT22;1797;51.844;7.684;2023-02-22T11:46:21;13.60;98.10
3566;DHT22;1797;51.844;7.684;2023-02-22T11:49:00;13.70;1.00
3566;DHT22;1797;51.844;7.684;2023-02-22T12:02:48;13.80;1.00
3566;DHT22;1797;51.844;7.684;2023-02-22T12:05:41;13.90;1.00
3566;DHT22;1797;51.844;7.684;2023-02-22T12:19:51;14.10;1.00
3566;DHT22;1797;51.844;7.684;2023-02-22T12:25:07;14.30;94.60
3566;DHT22;1797;51.844;7.684;2023-02-22T12:30:18;14.50;1.00
3566;DHT22;1797;51.844;7.684;2023-02-22T12:32:51;14.60;1.00
3566;DHT22;1797;51.844;7.684;2023-02-22T12:35:23;14.60;1.00
3566;DHT22;1797;51.844;7.684;2023-02-22T12:46:01;15.10;1.00
3566;DHT22;1797;51.844;7.684;2023-02-22T12:48:42;15.20;94.80
3566;DHT22;1797;51.844;7.684;2023-02-22T12:57:02;15.30;1.00
3566;DHT22;1797;51.844;7.684;2023-02-22T12:59:40;15.30;99.90
3566;DHT22;1797;51.844;7.684;2023-02-22T13:04:55;15.20;99.90
3566;DHT22;1797;51.844;7.684;2023-02-22T13:07:46;15.30;99.90
3566;DHT22;1797;51.844;7.684;2023-02-22T13:12:58;15.40;22.20
3566;DHT22;1797;51.844;7.684;2023-02-22T13:18:36;15.40;1.00
3566;DHT22;1797;51.844;7.684;2023-02-22T13:21:12;15.30;1.00
3566;DHT22;1797;51.844;7.684;2023-02-22T13:26:20;15.40;1.00
3566;DHT22;1797;51.844;7.684;2023-02-22T13:28:50;15.40;99.90
3566;DHT22;1797;51.844;7.684;2023-02-22T13:31:32;15.50;1.00
3566;DHT22;1797;51.844;7.684;2023-02-22T13:47:46;15.90;99.90
3566;DHT22;1797;51.844;7.684;2023-02-22T13:50:26;15.90;99.90
3566;DHT22;1797;51.844;7.684;2023-02-22T13:52:57;15.80;99.90
3566;DHT22;1797;51.844;7.684;2023-02-22T13:55:27;15.80;1.00
3566;DHT22;1797;51.844;7.684;2023-02-22T13:58:09;15.80;99.90
3566;DHT22;1797;51.844;7.684;2023-02-22T14:00:50;15.70;1.00
3566;DHT22;1797;51.844;7.684;2023-02-22T14:03:39;15.70;99.90
3566;DHT22;1797;51.844;7.684;2023-02-22T14:06:06;15.70;99.90
3566;DHT22;1797;51.844;7.684;2023-02-22T14:16:25;15.50;1.00
3566;DHT22;1797;51.844;7.684;2023-02-22T14:19:20;15.50;1.00
3566;DHT22;1797;51.844;7.684;2023-02-22T14:22:02;15.40;99.90
3566;DHT22;1797;51.844;7.684;2023-02-22T14:24:48;15.40;99.90
3566;DHT22;1797;51.844;7.684;2023-02-22T14:27:15;15.40;1.00
3566;DHT22;1797;51.844;7.684;2023-02-22T14:29:54;15.30;1.00
3566;DHT22;1797;51.844;7.684;2023-02-22T14:32:33;15.20;99.90
3566;DHT22;1797;51.844;7.684;2023-02-22T14:35:11;15.20;99.90
3566;DHT22;1797;51.844;7.684;2023-02-22T14:37:40;15.20;1.00
3566;DHT22;1797;51.844;7.684;2023-02-22T14:43:26;15.10;1.00
3566;DHT22;1797;51.844;7.684;2023-02-22T14:45:53;15.10;1.00
3566;DHT22;1797;51.844;7.684;2023-02-22T14:50:52;14.90;1.00
3566;DHT22;1797;51.844;7.684;2023-02-22T14:53:48;14.90;1.00
3566;DHT22;1797;51.844;7.684;2023-02-22T14:58:43;15.00;1.00
3566;DHT22;1797;51.844;7.684;2023-02-22T15:01:30;15.00;1.00
3566;DHT22;1797;51.844;7.684;2023-02-22T15:04:17;15.00;1.00
3566;DHT22;1797;51.844;7.684;2023-02-22T15:06:43;14.90;38.10
3566;DHT22;1797;51.844;7.684;2023-02-22T15:09:22;14.90;99.90
3566;DHT22;1797;51.844;7.684;2023-02-22T15:11:53;14.90;99.90
3566;DHT22;1797;51.844;7.684;2023-02-22T15:14:22;14.90;99.90
3566;DHT22;1797;51.844;7.684;2023-02-22T15:16:56;14.90;99.90
3566;DHT22;1797;51.844;7.684;2023-02-22T15:19:31;14.80;1.00
3566;DHT22;1797;51.844;7.684;2023-02-22T15:21:59;14.80;1.00
3566;DHT22;1797;51.844;7.684;2023-02-22T15:24:30;14.70;1.00
3566;DHT22;1797;51.844;7.684;2023-02-22T15:27:14;14.70;25.60
3566;DHT22;1797;51.844;7.684;2023-02-22T15:29:43;14.60;1.00
3566;DHT22;1797;51.844;7.684;2023-02-22T15:34:53;14.60;99.90
3566;DHT22;1797;51.844;7.684;2023-02-22T15:37:24;14.60;99.90
3566;DHT22;1797;51.844;7.684;2023-02-22T15:39:52;14.60;99.90
3566;DHT22;1797;51.844;7.684;2023-02-22T15:42:29;14.50;99.90
3566;DHT22;1797;51.844;7.684;2023-02-22T15:44:55;14.40;99.90
3566;DHT22;1797;51.844;7.684;2023-02-22T15:52:45;14.10;1.00
3566;DHT22;1797;51.844;7.684;2023-02-22T15:55:15;14.10;43.10
3566;DHT22;1797;51.844;7.684;2023-02-22T15:57:41;14.00;44.50
3566;DHT22;1797;51.844;7.684;2023-02-22T16:00:30;13.90;24.20
3566;DHT22;1797;51.844;7.684;2023-02-22T16:03:15;13.90;99.90
3566;DHT22;1797;51.844;7.684;2023-02-22T16:05:51;13.80;86.60
3566;DHT22;1797;51.844;7.684;2023-02-22T16:08:22;13.80;99.90
3566;DHT22;1797;51.844;7.684;2023-02-22T16:11:00;13.70;1.00
3566;DHT22;1797;51.844;7.684;2023-02-22T16:13:29;13.70;1.00
3566;DHT22;1797;51.844;7.684;2023-02-22T16:16:21;13.60;99.90
3566;DHT22;1797;51.844;7.684;2023-02-22T16:18:47;13.50;1.00
3566;DHT22;1797;51.844;7.684;2023-02-22T16:21:23;13.50;1.00
3566;DHT22;1797;51.844;7.684;2023-02-22T16:23:51;13.50;1.00
3566;DHT22;1797;51.844;7.684;2023-02-22T16:26:32;13.30;79.30
3566;DHT22;1797;51.844;7.684;2023-02-22T16:29:03;13.30;1.00
3566;DHT22;1797;51.844;7.684;2023-02-22T16:31:35;13.20;1.00
3566;DHT22;1797;51.844;7.684;2023-02-22T16:34:03;13.20;1.00
3566;DHT22;1797;51.844;7.684;2023-02-22T16:36:55;13.10;1.00
3566;DHT22;1797;51.844;7.684;2023-02-22T16:39:24;13.00;1.00
3566;DHT22;1797;51.844;7.684;2023-02-22T16:41:53;13.00;99.90
3566;DHT22;1797;51.844;7.684;2023-02-22T16:44:20;12.80;1.00
3566;DHT22;1797;51.844;7.684;2023-02-22T16:46:45;12.80;1.00
3566;DHT22;1797;51.844;7.684;2023-02-22T16:49:12;12.70;1.00
3566;DHT22;1797;51.844;7.684;2023-02-22T16:51:48;12.60;1.00
3566;DHT22;1797;51.844;7.684;2023-02-22T16:54:26;12.50;1.00
3566;DHT22;1797;51.844;7.684;2023-02-22T16:56:54;12.40;99.90
3566;DHT22;1797;51.844;7.684;2023-02-22T16:59:21;12.30;1.00
3566;DHT22;1797;51.844;7.684;2023-02-22T17:01:47;12.30;1.00
3566;DHT22;1797;51.844;7.684;2023-02-22T17:04:15;12.20;1.00
3566;DHT22;1797;51.844;7.684;2023-02-22T17:06:42;12.10;1.00
3566;DHT22;1797;51.844;7.684;2023-02-22T17:09:08;12.00;1.00
3566;DHT22;1797;51.844;7.684;2023-02-22T17:11:35;11.80;99.90
3566;DHT22;1797;51.844;7.684;2023-02-22T17:14:00;11.70;99.90
3566;DHT22;1797;51.844;7.684;2023-02-22T17:16:26;11.70;99.90
3566;DHT22;1797;51.844;7.684;2023-02-22T17:18:52;11.60;1.00
3566;DHT22;1797;51.844;7.684;2023-02-22T17:21:17;11.50;1.00
3566;DHT22;1797;51.844;7.684;2023-02-22T17:23:43;11.50;1.00
3566;DHT22;1797;51.844;7.684;2023-02-22T17:26:11;11.40;1.00
3566;DHT22;1797;51.844;7.684;2023-02-22T17:28:38;11.30;1.00
3566;DHT22;1797;51.844;7.684;2023-02-22T17:31:05;11.20;1.00
3566;DHT22;1797;51.844;7.684;2023-02-22T17:33:33;11.30;1.00
3566;DHT22;1797;51.844;7.684;2023-02-22T17:36:02;11.30;1.00
3566;DHT22;1797;51.844;7.684;2023-02-22T17:38:28;11.20;1.00
3566;DHT22;1797;51.844;7.684;2023-02-22T17:40:56;11.20;1.00
3566;DHT22;1797;51.844;7.684;2023-02-22T17:43:22;11.20;1.00
3566;DHT22;1797;51.844;7.684;2023-02-22T17:45:48;11.00;1.00
3566;DHT22;1797;51.844;7.684;2023-02-22T17:48:15;11.10;1.00
3566;DHT22;1797;51.844;7.684;2023-02-22T17:50:42;11.00;1.00
3566;DHT22;1797;51.844;7.684;2023-02-22T17:53:08;11.00;1.00
3566;DHT22;1797;51.844;7.684;2023-02-22T17:55:37;10.90;1.00
3566;DHT22;1797;51.844;7.684;2023-02-22T17:58:04;10.90;1.00
3566;DHT22;1797;51.844;7.684;2023-02-22T18:00:34;10.80;1.00
3566;DHT22;1797;51.844;7.684;2023-02-22T18:03:06;10.80;1.00
3566;DHT22;1797;51.844;7.684;2023-02-22T18:05:37;10.70;1.00
3566;DHT22;1797;51.844;7.684;2023-02-22T18:08:03;10.60;1.00
3566;DHT22;1797;51.844;7.684;2023-02-22T18:10:29;10.50;1.00
3566;DHT22;1797;51.844;7.684;2023-02-22T18:12:54;10.40;1.00
3566;DHT22;1797;51.844;7.684;2023-02-22T18:15:21;10.40;1.00
3566;DHT22;1797;51.844;7.684;2023-02-22T18:17:47;10.40;1.00
3566;DHT22;1797;51.844;7.684;2023-02-22T18:20:14;10.40;1.00
3566;DHT22;1797;51.844;7.684;2023-02-22T18:22:41;10.40;99.90
3566;DHT22;1797;51.844;7.684;2023-02-22T18:25:09;10.40;99.90
3566;DHT22;1797;51.844;7.684;2023-02-22T18:27:36;10.40;99.90
3566;DHT22;1797;51.844;7.684;2023-02-22T18:30:03;10.40;99.90
3566;DHT22;1797;51.844;7.684;2023-02-22T18:32:29;10.30;99.90
3566;DHT22;1797;51.844;7.684;2023-02-22T18:34:59;10.30;99.90
3566;DHT22;1797;51.844;7.684;2023-02-22T18:37:25;10.30;99.90
3566;DHT22;1797;51.844;7.684;2023-02-22T18:39:53;10.20;99.90
3566;DHT22;1797;51.844;7.684;2023-02-22T18:42:21;10.20;13.20
3566;DHT22;1797;51.844;7.684;2023-02-22T18:44:51;10.10;99.90
3566;DHT22;1797;51.844;7.684;2023-02-22T18:47:19;10.00;99.90
3566;DHT22;1797;51.844;7.684;2023-02-22T18:49:45;10.00;99.90
3566;DHT22;1797;51.844;7.684;2023-02-22T18:52:10;9.90;1.00
3566;DHT22;1797;51.844;7.684;2023-02-22T18:54:38;9.90;99.90
3566;DHT22;1797;51.844;7.684;2023-02-22T18:57:04;9.80;99.90
3566;DHT22;1797;51.844;7.684;2023-02-22T18:59:30;9.80;99.90
3566;DHT22;1797;51.844;7.684;2023-02-22T19:01:55;9.80;99.90
3566;DHT22;1797;51.844;7.684;2023-02-22T19:04:22;9.80;99.90